Terminal Aerodrome Forecast
Issued by NWS Duluth, MN

Home | Current Version | Previous Version | Text Only | Print | Product List | Glossary On
Versions: 1 2 3 4 5 6 7 8 9 10 11 12 13 14 15 16 17 18 19 20 21 22 23 24
364
FTUS43 KDLH 241729
TAFINL
TAF
KINL 241729Z 2418/2518 14010G17KT P6SM OVC015
     FM250000 14010KT P6SM SCT007 OVC012
     FM250600 15012KT 4SM -SHRA BR VCTS SCT003 OVC007CB
     FM251100 16009KT 4SM BR VCSH OVC004=

USA.gov is the U.S. government's official web portal to all federal, state and local government web resources and services.